createdAt,value
2022-08-26T00:02:30.431Z,63.1
2022-08-26T00:08:21.540Z,62.9
2022-08-26T00:14:15.384Z,60.9
2022-08-26T00:20:07.473Z,59
2022-08-26T00:26:00.256Z,59.6
2022-08-26T00:31:56.910Z,60.2
2022-08-26T00:39:00.084Z,61.7
2022-08-26T00:44:56.095Z,61.7
2022-08-26T00:50:46.781Z,62.7
2022-08-26T00:56:38.592Z,62.6
2022-08-26T01:02:34.558Z,62.4
2022-08-26T01:08:35.146Z,64.3
2022-08-26T01:14:27.327Z,65.4
2022-08-26T01:20:19.217Z,66
2022-08-26T01:26:21.565Z,69.8
2022-08-26T01:32:13.255Z,71.3
2022-08-26T01:38:05.453Z,72.5
2022-08-26T01:43:57.805Z,73.5
2022-08-26T01:49:55.145Z,74.6
2022-08-26T01:55:46.208Z,73.6
2022-08-26T02:01:40.435Z,72.9
2022-08-26T02:07:34.751Z,75.2
2022-08-26T02:13:26.908Z,75.4
2022-08-26T02:19:19.031Z,76.1
2022-08-26T02:25:13.169Z,78.2
2022-08-26T02:31:10.790Z,79.3
2022-08-26T02:37:08.454Z,79.1
2022-08-26T02:43:10.426Z,78.8
2022-08-26T02:49:10.403Z,79.7
2022-08-26T02:55:05.727Z,80.3
2022-08-26T03:00:56.928Z,82.7
2022-08-26T03:06:55.356Z,85.1
2022-08-26T03:12:49.055Z,84.7
2022-08-26T03:18:44.203Z,84.1
2022-08-26T03:24:48.149Z,85.4
2022-08-26T03:30:39.431Z,87.4
2022-08-26T03:36:36.739Z,86.9
2022-08-26T03:42:30.083Z,85.7
2022-08-26T03:48:21.391Z,86.7
2022-08-26T03:54:13.679Z,87.6
2022-08-26T04:00:06.008Z,87.8
2022-08-26T04:05:59.000Z,86
2022-08-26T04:11:52.372Z,86.4
2022-08-26T04:17:44.660Z,87.5
2022-08-26T04:23:49.493Z,86.1
2022-08-26T04:29:40.356Z,87.1
2022-08-26T04:35:32.859Z,87.6
2022-08-26T04:41:33.218Z,86.4
2022-08-26T04:47:33.272Z,85.6
2022-08-26T04:53:24.682Z,87.2
2022-08-26T04:59:18.587Z,86.6
2022-08-26T05:05:11.566Z,87.9
2022-08-26T05:11:07.228Z,87.1
2022-08-26T05:17:00.370Z,86.8
2022-08-26T05:22:53.392Z,86.4
2022-08-26T05:28:45.959Z,86.5
2022-08-26T05:34:44.572Z,86.4
2022-08-26T05:40:42.065Z,84.8
2022-08-26T05:46:33.475Z,85.1
2022-08-26T05:52:28.265Z,86.4
2022-08-26T05:58:19.914Z,86.2
2022-08-26T06:04:12.537Z,84.7
2022-08-26T06:10:33.719Z,85.2
2022-08-26T06:16:27.440Z,84.1
2022-08-26T06:22:24.947Z,84.1
2022-08-26T06:28:16.005Z,85.5
2022-08-26T06:34:12.676Z,83.7
2022-08-26T06:40:05.328Z,83.9
2022-08-26T06:45:57.905Z,83.9
2022-08-26T06:51:51.545Z,82.4
2022-08-26T06:57:47.450Z,82.2
2022-08-26T07:03:41.425Z,84.4
2022-08-26T07:09:39.759Z,83.6
2022-08-26T07:15:34.118Z,83.5
2022-08-26T07:21:28.149Z,82.7
2022-08-26T07:27:19.925Z,82.1
2022-08-26T07:33:12.450Z,83.5
2022-08-26T07:39:04.291Z,83
2022-08-26T07:44:59.464Z,82.4
2022-08-26T07:50:52.550Z,83.2
2022-08-26T07:56:45.869Z,83.2
2022-08-26T08:02:42.086Z,83
2022-08-26T08:08:37.994Z,81.6
2022-08-26T08:14:29.565Z,82.3
2022-08-26T08:20:24.816Z,82
2022-08-26T08:26:18.425Z,81.1
2022-08-26T08:32:17.119Z,80.9
2022-08-26T08:38:09.326Z,80.5
2022-08-26T08:44:01.883Z,79.8
2022-08-26T08:49:55.566Z,79.2
2022-08-26T08:55:47.879Z,80.3
2022-08-26T09:01:39.792Z,79.6
2022-08-26T09:07:36.815Z,78.4
2022-08-26T09:13:28.966Z,78.8
2022-08-26T09:19:23.091Z,78.5
2022-08-26T09:25:16.182Z,79.4
2022-08-26T09:31:12.917Z,78.7
2022-08-26T09:37:06.199Z,80.4
2022-08-26T09:43:01.343Z,78.4
2022-08-26T09:48:55.190Z,78.3
2022-08-26T09:54:52.347Z,78.4
2022-08-26T10:00:47.734Z,77.9
2022-08-26T10:06:39.007Z,78
2022-08-26T10:12:32.331Z,78.1
2022-08-26T10:18:24.750Z,77.9
2022-08-26T10:24:23.602Z,78.8
2022-08-26T10:30:17.085Z,78.6
2022-08-26T10:36:16.650Z,78.5
2022-08-26T10:42:12.669Z,79.7
2022-08-26T10:48:05.329Z,79.5
2022-08-26T10:53:57.921Z,78.7
2022-08-26T10:59:53.315Z,78.7
2022-08-26T11:05:43.757Z,77.8
2022-08-26T11:11:37.893Z,78.2
2022-08-26T11:17:28.639Z,78.7
2022-08-26T11:23:29.895Z,79
2022-08-26T11:29:21.726Z,80.3
2022-08-26T11:35:14.928Z,81.2
2022-08-26T11:41:09.357Z,80.2
2022-08-26T11:47:03.730Z,78.6
2022-08-26T11:53:01.736Z,78.3
2022-08-26T11:58:54.811Z,78
2022-08-26T12:04:46.773Z,76.4
2022-08-26T12:10:38.892Z,76.7
2022-08-26T12:16:31.438Z,75.7
2022-08-26T12:22:23.220Z,74.7
2022-08-26T12:28:21.476Z,74.1
2022-08-26T12:34:21.572Z,74.9
2022-08-26T12:40:19.129Z,72.9
2022-08-26T12:46:11.119Z,73.9
2022-08-26T12:52:02.778Z,74
2022-08-26T12:57:54.212Z,74.2
2022-08-26T13:03:46.850Z,75.3
2022-08-26T13:09:39.438Z,74.7
2022-08-26T13:15:33.598Z,73.7
2022-08-26T13:21:25.585Z,74.8
2022-08-26T13:27:26.178Z,73.8
2022-08-26T13:33:29.774Z,74.3
2022-08-26T13:39:23.764Z,73.8
2022-08-26T13:45:14.891Z,71.7
2022-08-26T13:51:10.611Z,72.7
2022-08-26T13:57:02.514Z,73.4
2022-08-26T14:02:54.452Z,72.6
2022-08-26T14:08:45.550Z,74.3
2022-08-26T14:14:39.243Z,73
2022-08-26T14:20:30.983Z,74
2022-08-26T14:26:31.310Z,73.7
2022-08-26T14:32:24.138Z,71.9
2022-08-26T14:38:15.101Z,72.6
2022-08-26T14:44:07.403Z,71.6
2022-08-26T14:50:00.785Z,71.9
2022-08-26T14:55:52.033Z,71.9
2022-08-26T15:01:43.488Z,72.3
2022-08-26T15:07:36.732Z,73.4
2022-08-26T15:13:28.675Z,72.5
2022-08-26T15:19:19.958Z,74.2
2022-08-26T15:25:11.300Z,74.4
2022-08-26T15:31:04.182Z,74.5
2022-08-26T15:37:13.779Z,74.6
2022-08-26T15:43:28.895Z,75.1
2022-08-26T15:49:20.503Z,74.9
2022-08-26T15:55:12.570Z,73.8
2022-08-26T16:01:12.089Z,73.4
2022-08-26T16:07:13.763Z,74
2022-08-26T16:13:05.445Z,74.5
2022-08-26T16:19:09.309Z,74.6
2022-08-26T16:25:00.129Z,75.5
2022-08-26T16:30:53.190Z,75
2022-08-26T16:36:44.418Z,75.4
2022-08-26T16:42:36.251Z,75.6
2022-08-26T16:48:27.735Z,75.5
2022-08-26T16:54:19.462Z,75.6
2022-08-26T17:00:10.762Z,75.5
2022-08-26T17:06:02.210Z,75.5
2022-08-26T17:11:54.445Z,76.1
2022-08-26T17:17:46.542Z,76.1
2022-08-26T17:23:40.232Z,77.5
2022-08-26T17:48:51.860Z,79.1
2022-08-26T17:54:55.654Z,80
2022-08-26T18:00:46.808Z,80
2022-08-26T18:06:37.621Z,81.7
2022-08-26T18:12:31.165Z,81.9
2022-08-26T18:18:23.709Z,82.1
2022-08-26T18:24:16.149Z,81.9
2022-08-26T18:30:07.175Z,81.3
2022-08-26T18:36:05.961Z,82
2022-08-26T18:41:56.500Z,81.1
2022-08-26T18:47:47.814Z,81.3
2022-08-26T18:53:39.275Z,81.3
2022-08-26T18:59:37.653Z,80.5
2022-08-26T19:05:44.428Z,80.5
2022-08-26T19:11:43.088Z,80.8
2022-08-26T19:17:36.026Z,80.4
2022-08-26T19:23:34.080Z,79.7
2022-08-26T19:29:25.867Z,79.6
2022-08-26T19:35:18.081Z,79.3
2022-08-26T19:41:08.838Z,80.3
2022-08-26T19:46:59.624Z,80.4
2022-08-26T19:52:51.315Z,79.8
2022-08-26T19:58:43.958Z,79.7
2022-08-26T20:04:35.043Z,79.2
2022-08-26T20:10:27.251Z,79.8
2022-08-26T20:16:17.585Z,80.7
2022-08-26T20:22:07.260Z,80.3
2022-08-26T20:27:58.378Z,79.7
2022-08-26T20:33:49.030Z,80.2
2022-08-26T20:39:40.014Z,80.7
2022-08-26T20:45:31.893Z,81.8
2022-08-26T20:51:24.347Z,81.4
2022-08-26T20:57:15.473Z,81.8
2022-08-26T21:03:06.314Z,81.4
2022-08-26T21:08:57.359Z,82.1
2022-08-26T21:14:51.612Z,82.4
2022-08-26T21:20:42.325Z,82.4
2022-08-26T21:26:34.208Z,81.2
2022-08-26T21:32:26.149Z,80.5
2022-08-26T21:38:16.320Z,81.1
2022-08-26T21:44:09.292Z,80.9
2022-08-26T21:50:01.771Z,80.6
2022-08-26T21:55:53.966Z,80.5
2022-08-26T22:01:44.913Z,79.9
2022-08-26T22:07:37.610Z,80.2
2022-08-26T22:13:28.618Z,79.6
2022-08-26T22:19:21.120Z,79.8
2022-08-26T22:25:14.865Z,79.3
2022-08-26T22:31:05.478Z,80.5
2022-08-26T22:36:57.658Z,80
2022-08-26T22:43:00.723Z,80.9
2022-08-26T22:48:55.615Z,82.1
2022-08-26T22:54:48.283Z,82.9
2022-08-26T23:00:39.501Z,83.7
2022-08-26T23:06:31.927Z,84.4
2022-08-26T23:12:21.942Z,85
2022-08-26T23:18:13.632Z,85.4
2022-08-26T23:24:04.976Z,85.7
2022-08-26T23:29:56.927Z,86.2
2022-08-26T23:35:48.381Z,86.7
2022-08-26T23:41:42.050Z,86.5
2022-08-26T23:47:33.354Z,86.7
2022-08-26T23:53:25.521Z,87.2
2022-08-26T23:59:16.449Z,86.7
